sensor_id;sensor_type;location;lat;lon;timestamp;temperature;humidity
38936;DHT22;66589;47.458;9.644;2023-07-08T03:18:47;21.60;67.30
38936;DHT22;66589;47.458;9.644;2023-07-08T03:21:16;21.50;67.80
38936;DHT22;66589;47.458;9.644;2023-07-08T03:23:42;21.40;67.90
38936;DHT22;66589;47.458;9.644;2023-07-08T03:26:13;21.40;67.70
38936;DHT22;66589;47.458;9.644;2023-07-08T03:28:40;21.40;68.40
38936;DHT22;66589;47.458;9.644;2023-07-08T03:31:08;21.40;68.00
38936;DHT22;66589;47.458;9.644;2023-07-08T03:33:34;21.40;68.90
38936;DHT22;66589;47.458;9.644;2023-07-08T03:36:01;21.30;68.60
38936;DHT22;66589;47.458;9.644;2023-07-08T03:38:27;21.30;68.00
38936;DHT22;66589;47.458;9.644;2023-07-08T03:40:53;21.40;69.30
38936;DHT22;66589;47.458;9.644;2023-07-08T03:43:19;21.40;68.30
38936;DHT22;66589;47.458;9.644;2023-07-08T03:45:45;21.40;68.90
38936;DHT22;66589;47.458;9.644;2023-07-08T03:48:11;21.40;69.40
38936;DHT22;66589;47.458;9.644;2023-07-08T03:50:37;21.30;69.40
38936;DHT22;66589;47.458;9.644;2023-07-08T03:53:03;21.30;68.70
38936;DHT22;66589;47.458;9.644;2023-07-08T03:55:29;21.30;68.50
38936;DHT22;66589;47.458;9.644;2023-07-08T03:57:55;21.30;68.70
38936;DHT22;66589;47.458;9.644;2023-07-08T04:00:21;21.40;69.20
38936;DHT22;66589;47.458;9.644;2023-07-08T04:02:47;21.40;68.10
38936;DHT22;66589;47.458;9.644;2023-07-08T04:05:21;21.50;67.30
38936;DHT22;66589;47.458;9.644;2023-07-08T04:07:47;21.50;66.50
38936;DHT22;66589;47.458;9.644;2023-07-08T04:10:13;21.60;66.00
38936;DHT22;66589;47.458;9.644;2023-07-08T04:12:39;21.60;66.50
38936;DHT22;66589;47.458;9.644;2023-07-08T04:15:07;21.60;67.50
38936;DHT22;66589;47.458;9.644;2023-07-08T04:17:56;21.60;67.30
38936;DHT22;66589;47.458;9.644;2023-07-08T04:20:23;21.60;67.30
38936;DHT22;66589;47.458;9.644;2023-07-08T04:22:49;21.70;66.70
38936;DHT22;66589;47.458;9.644;2023-07-08T04:25:15;21.70;66.60
38936;DHT22;66589;47.458;9.644;2023-07-08T04:27:41;21.70;65.60
38936;DHT22;66589;47.458;9.644;2023-07-08T04:30:07;21.80;65.20
38936;DHT22;66589;47.458;9.644;2023-07-08T04:32:34;21.80;65.30
38936;DHT22;66589;47.458;9.644;2023-07-08T04:35:03;21.90;64.70
38936;DHT22;66589;47.458;9.644;2023-07-08T04:37:29;22.00;64.50
38936;DHT22;66589;47.458;9.644;2023-07-08T04:39:54;22.00;64.30
38936;DHT22;66589;47.458;9.644;2023-07-08T04:42:20;22.00;64.00
38936;DHT22;66589;47.458;9.644;2023-07-08T04:44:45;22.00;64.70
38936;DHT22;66589;47.458;9.644;2023-07-08T04:47:12;21.90;64.20
38936;DHT22;66589;47.458;9.644;2023-07-08T04:49:39;22.00;64.60
38936;DHT22;66589;47.458;9.644;2023-07-08T04:52:06;21.90;65.60
38936;DHT22;66589;47.458;9.644;2023-07-08T04:54:31;21.90;65.50
38936;DHT22;66589;47.458;9.644;2023-07-08T04:56:57;21.80;65.50
38936;DHT22;66589;47.458;9.644;2023-07-08T04:59:24;21.90;65.90
38936;DHT22;66589;47.458;9.644;2023-07-08T05:01:51;21.90;66.30
38936;DHT22;66589;47.458;9.644;2023-07-08T05:04:20;22.00;65.90
38936;DHT22;66589;47.458;9.644;2023-07-08T05:06:46;22.20;66.20
38936;DHT22;66589;47.458;9.644;2023-07-08T05:09:12;22.30;65.90
38936;DHT22;66589;47.458;9.644;2023-07-08T05:11:38;22.30;64.90
38936;DHT22;66589;47.458;9.644;2023-07-08T05:14:04;22.50;64.20
38936;DHT22;66589;47.458;9.644;2023-07-08T05:16:33;22.70;63.10
38936;DHT22;66589;47.458;9.644;2023-07-08T05:18:58;22.90;61.80
38936;DHT22;66589;47.458;9.644;2023-07-08T05:21:24;23.00;62.30
38936;DHT22;66589;47.458;9.644;2023-07-08T05:23:52;23.20;63.30
38936;DHT22;66589;47.458;9.644;2023-07-08T05:26:19;23.40;63.00
38936;DHT22;66589;47.458;9.644;2023-07-08T05:28:45;23.60;61.70
38936;DHT22;66589;47.458;9.644;2023-07-08T05:31:11;23.80;59.00
38936;DHT22;66589;47.458;9.644;2023-07-08T05:33:36;24.00;59.00
38936;DHT22;66589;47.458;9.644;2023-07-08T05:36:02;24.30;58.10
38936;DHT22;66589;47.458;9.644;2023-07-08T05:38:28;24.50;57.30
38936;DHT22;66589;47.458;9.644;2023-07-08T05:40:55;24.80;57.20
38936;DHT22;66589;47.458;9.644;2023-07-08T05:43:21;24.90;57.50
38936;DHT22;66589;47.458;9.644;2023-07-08T05:45:47;25.20;56.50
38936;DHT22;66589;47.458;9.644;2023-07-08T05:48:13;25.50;55.10
38936;DHT22;66589;47.458;9.644;2023-07-08T05:50:39;25.80;55.70
38936;DHT22;66589;47.458;9.644;2023-07-08T05:53:05;26.10;56.40
38936;DHT22;66589;47.458;9.644;2023-07-08T05:55:32;26.40;56.40
38936;DHT22;66589;47.458;9.644;2023-07-08T05:57:57;26.50;55.70
38936;DHT22;66589;47.458;9.644;2023-07-08T06:00:23;26.70;57.20
38936;DHT22;66589;47.458;9.644;2023-07-08T06:02:49;27.00;55.60
38936;DHT22;66589;47.458;9.644;2023-07-08T06:05:15;26.90;54.50
38936;DHT22;66589;47.458;9.644;2023-07-08T06:07:40;26.90;54.50
38936;DHT22;66589;47.458;9.644;2023-07-08T06:10:07;26.80;55.40
38936;DHT22;66589;47.458;9.644;2023-07-08T06:12:32;26.80;55.80
38936;DHT22;66589;47.458;9.644;2023-07-08T06:14:58;26.80;56.40
38936;DHT22;66589;47.458;9.644;2023-07-08T06:17:24;26.70;55.50
38936;DHT22;66589;47.458;9.644;2023-07-08T06:19:50;26.70;57.50
38936;DHT22;66589;47.458;9.644;2023-07-08T06:22:15;26.90;57.60
38936;DHT22;66589;47.458;9.644;2023-07-08T06:24:41;27.00;57.00
38936;DHT22;66589;47.458;9.644;2023-07-08T06:27:07;27.00;56.70
38936;DHT22;66589;47.458;9.644;2023-07-08T06:29:34;27.20;54.90
38936;DHT22;66589;47.458;9.644;2023-07-08T06:32:00;27.10;56.10
38936;DHT22;66589;47.458;9.644;2023-07-08T06:34:25;27.10;56.70
38936;DHT22;66589;47.458;9.644;2023-07-08T06:36:51;27.10;57.20
38936;DHT22;66589;47.458;9.644;2023-07-08T06:39:18;26.90;57.50
38936;DHT22;66589;47.458;9.644;2023-07-08T06:41:44;27.10;57.30
38936;DHT22;66589;47.458;9.644;2023-07-08T06:44:10;27.40;57.10
38936;DHT22;66589;47.458;9.644;2023-07-08T06:46:36;27.60;56.80
38936;DHT22;66589;47.458;9.644;2023-07-08T06:49:01;27.40;59.30
38936;DHT22;66589;47.458;9.644;2023-07-08T06:51:27;27.10;58.20
38936;DHT22;66589;47.458;9.644;2023-07-08T06:53:53;27.10;57.60
38936;DHT22;66589;47.458;9.644;2023-07-08T06:56:19;27.20;58.40
38936;DHT22;66589;47.458;9.644;2023-07-08T06:58:45;27.20;59.40
38936;DHT22;66589;47.458;9.644;2023-07-08T07:01:11;27.00;59.00
38936;DHT22;66589;47.458;9.644;2023-07-08T07:03:37;27.20;59.20
38936;DHT22;66589;47.458;9.644;2023-07-08T07:06:02;27.40;57.80
38936;DHT22;66589;47.458;9.644;2023-07-08T07:08:28;27.30;57.20
38936;DHT22;66589;47.458;9.644;2023-07-08T07:10:54;27.50;58.30
38936;DHT22;66589;47.458;9.644;2023-07-08T07:13:19;27.90;57.10
38936;DHT22;66589;47.458;9.644;2023-07-08T07:15:48;28.40;55.80
38936;DHT22;66589;47.458;9.644;2023-07-08T07:18:14;28.50;53.50
38936;DHT22;66589;47.458;9.644;2023-07-08T07:20:48;28.10;54.10
38936;DHT22;66589;47.458;9.644;2023-07-08T07:23:15;28.10;55.00
38936;DHT22;66589;47.458;9.644;2023-07-08T07:25:41;28.20;55.60
38936;DHT22;66589;47.458;9.644;2023-07-08T07:28:06;28.10;54.30
38936;DHT22;66589;47.458;9.644;2023-07-08T07:30:32;28.10;53.80
38936;DHT22;66589;47.458;9.644;2023-07-08T07:33:01;28.40;54.10
38936;DHT22;66589;47.458;9.644;2023-07-08T07:35:27;29.20;53.20
38936;DHT22;66589;47.458;9.644;2023-07-08T07:37:52;29.90;53.00
38936;DHT22;66589;47.458;9.644;2023-07-08T07:40:18;30.90;50.20
38936;DHT22;66589;47.458;9.644;2023-07-08T07:42:46;31.60;49.30
38936;DHT22;66589;47.458;9.644;2023-07-08T07:45:13;33.80;47.30
38936;DHT22;66589;47.458;9.644;2023-07-08T07:47:39;34.10;44.80
38936;DHT22;66589;47.458;9.644;2023-07-08T07:50:06;33.90;45.00
38936;DHT22;66589;47.458;9.644;2023-07-08T07:52:32;33.10;44.50
38936;DHT22;66589;47.458;9.644;2023-07-08T07:54:58;32.30;44.00
38936;DHT22;66589;47.458;9.644;2023-07-08T07:57:24;32.30;45.20
38936;DHT22;66589;47.458;9.644;2023-07-08T07:59:50;32.10;46.00
38936;DHT22;66589;47.458;9.644;2023-07-08T08:02:17;32.00;46.60
38936;DHT22;66589;47.458;9.644;2023-07-08T08:04:43;32.00;45.80
38936;DHT22;66589;47.458;9.644;2023-07-08T08:07:09;32.10;44.90
38936;DHT22;66589;47.458;9.644;2023-07-08T08:09:36;33.80;44.40
38936;DHT22;66589;47.458;9.644;2023-07-08T08:12:02;35.70;41.60
38936;DHT22;66589;47.458;9.644;2023-07-08T08:14:28;35.60;40.70
38936;DHT22;66589;47.458;9.644;2023-07-08T08:16:54;34.40;41.70
38936;DHT22;66589;47.458;9.644;2023-07-08T08:19:20;33.10;43.00
38936;DHT22;66589;47.458;9.644;2023-07-08T08:21:46;32.40;45.20
38936;DHT22;66589;47.458;9.644;2023-07-08T08:24:11;32.90;44.90
38936;DHT22;66589;47.458;9.644;2023-07-08T08:26:37;32.20;45.20
38936;DHT22;66589;47.458;9.644;2023-07-08T08:29:02;31.60;47.50
38936;DHT22;66589;47.458;9.644;2023-07-08T08:31:28;31.10;48.10
38936;DHT22;66589;47.458;9.644;2023-07-08T08:33:56;30.90;47.70
38936;DHT22;66589;47.458;9.644;2023-07-08T08:36:22;31.20;47.90
38936;DHT22;66589;47.458;9.644;2023-07-08T08:38:48;31.40;47.90
38936;DHT22;66589;47.458;9.644;2023-07-08T08:41:19;31.60;47.80
38936;DHT22;66589;47.458;9.644;2023-07-08T08:43:46;31.50;47.10
38936;DHT22;66589;47.458;9.644;2023-07-08T08:46:25;32.20;46.50
38936;DHT22;66589;47.458;9.644;2023-07-08T08:51:36;32.20;46.40
38936;DHT22;66589;47.458;9.644;2023-07-08T08:54:01;32.50;46.20
38936;DHT22;66589;47.458;9.644;2023-07-08T08:56:28;32.50;45.70
38936;DHT22;66589;47.458;9.644;2023-07-08T09:02:27;33.30;45.00
38936;DHT22;66589;47.458;9.644;2023-07-08T09:05:01;34.00;44.20
38936;DHT22;66589;47.458;9.644;2023-07-08T09:07:29;35.70;42.80
38936;DHT22;66589;47.458;9.644;2023-07-08T09:10:14;35.30;42.20
38936;DHT22;66589;47.458;9.644;2023-07-08T09:12:41;36.90;42.00
38936;DHT22;66589;47.458;9.644;2023-07-08T09:15:14;38.00;40.30
38936;DHT22;66589;47.458;9.644;2023-07-08T09:17:40;39.10;38.60
38936;DHT22;66589;47.458;9.644;2023-07-08T09:22:53;39.50;37.90
38936;DHT22;66589;47.458;9.644;2023-07-08T09:25:32;40.80;37.10
38936;DHT22;66589;47.458;9.644;2023-07-08T09:27:59;40.30;36.30
38936;DHT22;66589;47.458;9.644;2023-07-08T09:30:25;39.00;37.80
38936;DHT22;66589;47.458;9.644;2023-07-08T09:32:52;39.20;37.70
38936;DHT22;66589;47.458;9.644;2023-07-08T09:35:23;38.80;37.70
38936;DHT22;66589;47.458;9.644;2023-07-08T09:37:50;37.90;38.10
38936;DHT22;66589;47.458;9.644;2023-07-08T09:40:20;37.40;39.10
38936;DHT22;66589;47.458;9.644;2023-07-08T09:42:52;37.00;39.40
38936;DHT22;66589;47.458;9.644;2023-07-08T09:45:23;35.90;38.70
38936;DHT22;66589;47.458;9.644;2023-07-08T09:47:53;35.10;40.70
38936;DHT22;66589;47.458;9.644;2023-07-08T09:50:27;34.90;40.80
38936;DHT22;66589;47.458;9.644;2023-07-08T09:52:57;34.80;40.70
38936;DHT22;66589;47.458;9.644;2023-07-08T09:55:25;34.50;41.40
38936;DHT22;66589;47.458;9.644;2023-07-08T09:57:52;35.20;41.60
38936;DHT22;66589;47.458;9.644;2023-07-08T10:00:27;37.00;39.20
38936;DHT22;66589;47.458;9.644;2023-07-08T10:02:57;38.30;37.90
38936;DHT22;66589;47.458;9.644;2023-07-08T10:07:56;38.90;36.70
38936;DHT22;66589;47.458;9.644;2023-07-08T10:10:36;38.60;38.10
38936;DHT22;66589;47.458;9.644;2023-07-08T10:13:06;37.60;37.30
38936;DHT22;66589;47.458;9.644;2023-07-08T10:15:40;37.30;39.00
38936;DHT22;66589;47.458;9.644;2023-07-08T10:18:15;36.30;39.60
38936;DHT22;66589;47.458;9.644;2023-07-08T10:32:01;35.10;41.00
38936;DHT22;66589;47.458;9.644;2023-07-08T10:45:15;33.70;44.80
38936;DHT22;66589;47.458;9.644;2023-07-08T10:52:49;33.30;45.20
38936;DHT22;66589;47.458;9.644;2023-07-08T10:55:38;32.90;44.90
38936;DHT22;66589;47.458;9.644;2023-07-08T10:58:24;32.50;46.20
38936;DHT22;66589;47.458;9.644;2023-07-08T11:04:17;31.60;47.90
38936;DHT22;66589;47.458;9.644;2023-07-08T11:06:51;31.70;47.90
38936;DHT22;66589;47.458;9.644;2023-07-08T11:09:26;31.50;47.00
38936;DHT22;66589;47.458;9.644;2023-07-08T11:12:28;31.30;48.20
38936;DHT22;66589;47.458;9.644;2023-07-08T11:19:59;31.90;47.90
38936;DHT22;66589;47.458;9.644;2023-07-08T11:22:27;31.50;49.60
38936;DHT22;66589;47.458;9.644;2023-07-08T11:24:56;31.30;50.00
38936;DHT22;66589;47.458;9.644;2023-07-08T11:27:36;31.10;50.80
38936;DHT22;66589;47.458;9.644;2023-07-08T11:32:36;30.70;51.70
38936;DHT22;66589;47.458;9.644;2023-07-08T11:35:05;30.70;51.10
38936;DHT22;66589;47.458;9.644;2023-07-08T11:37:33;30.90;50.70
38936;DHT22;66589;47.458;9.644;2023-07-08T11:40:17;30.90;49.50
38936;DHT22;66589;47.458;9.644;2023-07-08T11:42:47;30.80;50.20
38936;DHT22;66589;47.458;9.644;2023-07-08T11:45:30;30.20;50.60
38936;DHT22;66589;47.458;9.644;2023-07-08T11:48:47;30.10;51.80
38936;DHT22;66589;47.458;9.644;2023-07-08T11:50:54;30.30;52.00
38936;DHT22;66589;47.458;9.644;2023-07-08T11:56:03;30.70;52.00
38936;DHT22;66589;47.458;9.644;2023-07-08T12:01:32;31.20;51.90
38936;DHT22;66589;47.458;9.644;2023-07-08T12:11:43;31.50;52.50
38936;DHT22;66589;47.458;9.644;2023-07-08T12:14:10;31.40;51.50
38936;DHT22;66589;47.458;9.644;2023-07-08T12:16:36;31.30;51.50
38936;DHT22;66589;47.458;9.644;2023-07-08T12:19:02;31.40;51.40
38936;DHT22;66589;47.458;9.644;2023-07-08T12:21:36;31.40;51.70
38936;DHT22;66589;47.458;9.644;2023-07-08T12:24:06;31.30;50.20
38936;DHT22;66589;47.458;9.644;2023-07-08T12:26:35;31.30;50.00
38936;DHT22;66589;47.458;9.644;2023-07-08T12:29:01;31.30;50.50
38936;DHT22;66589;47.458;9.644;2023-07-08T12:31:28;31.30;51.20
38936;DHT22;66589;47.458;9.644;2023-07-08T12:33:54;31.20;51.80
38936;DHT22;66589;47.458;9.644;2023-07-08T12:36:24;31.20;51.40
38936;DHT22;66589;47.458;9.644;2023-07-08T12:38:55;31.10;51.20
38936;DHT22;66589;47.458;9.644;2023-07-08T12:41:28;31.00;52.10
38936;DHT22;66589;47.458;9.644;2023-07-08T12:43:55;31.10;51.90
38936;DHT22;66589;47.458;9.644;2023-07-08T12:46:21;31.10;52.20
38936;DHT22;66589;47.458;9.644;2023-07-08T12:48:48;31.00;51.60
38936;DHT22;66589;47.458;9.644;2023-07-08T12:51:19;31.10;50.30
38936;DHT22;66589;47.458;9.644;2023-07-08T12:53:50;31.00;51.40
38936;DHT22;66589;47.458;9.644;2023-07-08T12:56:16;31.20;51.80
38936;DHT22;66589;47.458;9.644;2023-07-08T12:58:50;31.00;50.90
38936;DHT22;66589;47.458;9.644;2023-07-08T13:01:21;30.90;51.30
38936;DHT22;66589;47.458;9.644;2023-07-08T13:03:49;30.80;50.90
38936;DHT22;66589;47.458;9.644;2023-07-08T13:06:18;30.80;51.50
38936;DHT22;66589;47.458;9.644;2023-07-08T13:08:46;30.90;51.00
38936;DHT22;66589;47.458;9.644;2023-07-08T13:11:15;31.00;50.30
38936;DHT22;66589;47.458;9.644;2023-07-08T13:13:56;31.00;51.20
38936;DHT22;66589;47.458;9.644;2023-07-08T13:16:24;31.20;51.30
38936;DHT22;66589;47.458;9.644;2023-07-08T13:18:51;31.30;49.80
38936;DHT22;66589;47.458;9.644;2023-07-08T13:21:17;31.40;51.00
38936;DHT22;66589;47.458;9.644;2023-07-08T13:23:43;31.40;50.70
38936;DHT22;66589;47.458;9.644;2023-07-08T13:26:18;31.40;51.60
38936;DHT22;66589;47.458;9.644;2023-07-08T13:28:44;31.40;51.80
38936;DHT22;66589;47.458;9.644;2023-07-08T13:31:24;31.40;52.30
38936;DHT22;66589;47.458;9.644;2023-07-08T13:33:56;31.30;52.10
38936;DHT22;66589;47.458;9.644;2023-07-08T13:36:35;31.30;51.70
38936;DHT22;66589;47.458;9.644;2023-07-08T13:39:07;31.30;52.20
38936;DHT22;66589;47.458;9.644;2023-07-08T13:41:34;31.20;52.10
38936;DHT22;66589;47.458;9.644;2023-07-08T13:44:07;31.10;52.90
38936;DHT22;66589;47.458;9.644;2023-07-08T13:46:38;31.20;53.50
38936;DHT22;66589;47.458;9.644;2023-07-08T13:49:14;31.40;54.90
38936;DHT22;66589;47.458;9.644;2023-07-08T13:51:41;31.30;53.10
38936;DHT22;66589;47.458;9.644;2023-07-08T13:54:19;31.20;51.90
38936;DHT22;66589;47.458;9.644;2023-07-08T13:56:47;31.10;52.30
38936;DHT22;66589;47.458;9.644;2023-07-08T13:59:22;31.10;51.90
38936;DHT22;66589;47.458;9.644;2023-07-08T14:01:53;31.00;51.10
38936;DHT22;66589;47.458;9.644;2023-07-08T14:04:24;30.80;50.60
38936;DHT22;66589;47.458;9.644;2023-07-08T14:06:50;30.90;51.80
38936;DHT22;66589;47.458;9.644;2023-07-08T14:09:18;31.10;52.80
38936;DHT22;66589;47.458;9.644;2023-07-08T14:11:45;31.30;51.90
38936;DHT22;66589;47.458;9.644;2023-07-08T14:14:11;31.40;50.90
38936;DHT22;66589;47.458;9.644;2023-07-08T14:16:43;31.50;51.10
38936;DHT22;66589;47.458;9.644;2023-07-08T14:19:39;31.50;51.70
38936;DHT22;66589;47.458;9.644;2023-07-08T14:24:43;31.50;51.90
38936;DHT22;66589;47.458;9.644;2023-07-08T14:27:10;31.50;51.60
38936;DHT22;66589;47.458;9.644;2023-07-08T14:29:38;31.50;52.30
38936;DHT22;66589;47.458;9.644;2023-07-08T14:32:07;31.30;50.80
38936;DHT22;66589;47.458;9.644;2023-07-08T14:34:35;31.10;51.10
38936;DHT22;66589;47.458;9.644;2023-07-08T14:37:01;31.20;51.90
38936;DHT22;66589;47.458;9.644;2023-07-08T14:39:26;31.10;52.10
38936;DHT22;66589;47.458;9.644;2023-07-08T14:41:52;31.10;52.00
38936;DHT22;66589;47.458;9.644;2023-07-08T14:44:19;31.00;51.00
38936;DHT22;66589;47.458;9.644;2023-07-08T14:46:45;30.80;54.00
38936;DHT22;66589;47.458;9.644;2023-07-08T14:49:16;30.80;51.60
38936;DHT22;66589;47.458;9.644;2023-07-08T14:51:42;30.70;54.20
38936;DHT22;66589;47.458;9.644;2023-07-08T14:54:08;30.70;53.90
38936;DHT22;66589;47.458;9.644;2023-07-08T14:56:33;30.60;53.80
38936;DHT22;66589;47.458;9.644;2023-07-08T14:58:59;30.70;53.00
38936;DHT22;66589;47.458;9.644;2023-07-08T15:01:25;30.70;51.80
38936;DHT22;66589;47.458;9.644;2023-07-08T15:03:58;30.60;55.00
38936;DHT22;66589;47.458;9.644;2023-07-08T15:06:24;30.70;52.90
38936;DHT22;66589;47.458;9.644;2023-07-08T15:08:50;30.70;54.00
38936;DHT22;66589;47.458;9.644;2023-07-08T15:11:16;30.60;52.10
38936;DHT22;66589;47.458;9.644;2023-07-08T15:13:44;30.60;54.10
38936;DHT22;66589;47.458;9.644;2023-07-08T15:16:15;30.50;51.80
38936;DHT22;66589;47.458;9.644;2023-07-08T15:18:41;30.50;52.10
38936;DHT22;66589;47.458;9.644;2023-07-08T15:21:11;30.60;54.60
38936;DHT22;66589;47.458;9.644;2023-07-08T15:23:37;30.60;54.40
38936;DHT22;66589;47.458;9.644;2023-07-08T15:26:03;30.50;54.50
38936;DHT22;66589;47.458;9.644;2023-07-08T15:28:50;30.50;52.30
38936;DHT22;66589;47.458;9.644;2023-07-08T15:31:21;30.60;54.20
38936;DHT22;66589;47.458;9.644;2023-07-08T15:33:51;30.50;53.30
38936;DHT22;66589;47.458;9.644;2023-07-08T15:36:18;30.50;52.70
38936;DHT22;66589;47.458;9.644;2023-07-08T15:38:43;30.40;54.40
38936;DHT22;66589;47.458;9.644;2023-07-08T15:41:29;30.50;53.60
38936;DHT22;66589;47.458;9.644;2023-07-08T15:43:56;30.50;55.90
38936;DHT22;66589;47.458;9.644;2023-07-08T15:46:23;30.40;53.80
38936;DHT22;66589;47.458;9.644;2023-07-08T15:48:51;30.40;51.50
38936;DHT22;66589;47.458;9.644;2023-07-08T15:51:17;30.40;53.90
38936;DHT22;66589;47.458;9.644;2023-07-08T15:53:44;30.50;52.00
38936;DHT22;66589;47.458;9.644;2023-07-08T15:56:14;30.50;52.60
38936;DHT22;66589;47.458;9.644;2023-07-08T15:58:42;30.40;52.30
38936;DHT22;66589;47.458;9.644;2023-07-08T16:01:16;30.30;52.80
38936;DHT22;66589;47.458;9.644;2023-07-08T16:03:42;30.30;53.10
38936;DHT22;66589;47.458;9.644;2023-07-08T16:06:08;30.30;52.60
38936;DHT22;66589;47.458;9.644;2023-07-08T16:08:34;30.30;51.70
38936;DHT22;66589;47.458;9.644;2023-07-08T16:11:08;30.20;52.90
38936;DHT22;66589;47.458;9.644;2023-07-08T16:13:37;30.30;53.50
38936;DHT22;66589;47.458;9.644;2023-07-08T16:16:03;30.30;53.20
38936;DHT22;66589;47.458;9.644;2023-07-08T16:18:29;30.30;52.90
38936;DHT22;66589;47.458;9.644;2023-07-08T16:20:55;30.40;53.20
38936;DHT22;66589;47.458;9.644;2023-07-08T16:23:20;30.50;51.50
38936;DHT22;66589;47.458;9.644;2023-07-08T16:25:49;30.50;51.90
38936;DHT22;66589;47.458;9.644;2023-07-08T16:28:27;30.60;50.70
38936;DHT22;66589;47.458;9.644;2023-07-08T16:30:54;30.80;51.90
38936;DHT22;66589;47.458;9.644;2023-07-08T16:33:20;30.90;50.90
38936;DHT22;66589;47.458;9.644;2023-07-08T16:35:46;31.10;54.50
38936;DHT22;66589;47.458;9.644;2023-07-08T16:38:12;31.10;52.60
38936;DHT22;66589;47.458;9.644;2023-07-08T16:40:37;31.30;52.50
38936;DHT22;66589;47.458;9.644;2023-07-08T16:43:03;31.30;50.30
38936;DHT22;66589;47.458;9.644;2023-07-08T16:45:29;31.30;51.10
38936;DHT22;66589;47.458;9.644;2023-07-08T16:47:54;31.30;48.90
38936;DHT22;66589;47.458;9.644;2023-07-08T16:50:24;31.40;49.70
38936;DHT22;66589;47.458;9.644;2023-07-08T16:52:51;31.50;51.20
38936;DHT22;66589;47.458;9.644;2023-07-08T16:55:19;31.40;49.70
38936;DHT22;66589;47.458;9.644;2023-07-08T16:57:45;31.40;48.70
38936;DHT22;66589;47.458;9.644;2023-07-08T17:00:18;31.40;50.50
38936;DHT22;66589;47.458;9.644;2023-07-08T17:02:45;31.40;48.30
38936;DHT22;66589;47.458;9.644;2023-07-08T17:05:21;31.50;49.10
38936;DHT22;66589;47.458;9.644;2023-07-08T17:07:47;31.50;49.30
38936;DHT22;66589;47.458;9.644;2023-07-08T17:10:12;31.40;49.50
38936;DHT22;66589;47.458;9.644;2023-07-08T17:12:38;31.30;50.00
38936;DHT22;66589;47.458;9.644;2023-07-08T17:15:04;31.30;50.80
38936;DHT22;66589;47.458;9.644;2023-07-08T17:17:30;31.20;51.10
38936;DHT22;66589;47.458;9.644;2023-07-08T17:20:00;31.20;48.60
38936;DHT22;66589;47.458;9.644;2023-07-08T17:22:31;31.10;50.40
38936;DHT22;66589;47.458;9.644;2023-07-08T17:24:57;30.90;51.20
38936;DHT22;66589;47.458;9.644;2023-07-08T17:27:23;30.80;50.20
38936;DHT22;66589;47.458;9.644;2023-07-08T17:29:48;30.80;50.60
38936;DHT22;66589;47.458;9.644;2023-07-08T17:32:14;30.60;51.30
38936;DHT22;66589;47.458;9.644;2023-07-08T17:34:40;30.50;52.60
38936;DHT22;66589;47.458;9.644;2023-07-08T17:37:07;30.50;51.10
38936;DHT22;66589;47.458;9.644;2023-07-08T17:39:33;30.50;49.30
38936;DHT22;66589;47.458;9.644;2023-07-08T17:41:58;30.30;49.90
38936;DHT22;66589;47.458;9.644;2023-07-08T17:44:24;30.30;49.70
38936;DHT22;66589;47.458;9.644;2023-07-08T17:46:50;30.20;50.60
38936;DHT22;66589;47.458;9.644;2023-07-08T17:49:15;30.00;50.40
38936;DHT22;66589;47.458;9.644;2023-07-08T17:51:41;29.90;49.40
38936;DHT22;66589;47.458;9.644;2023-07-08T17:54:13;29.80;50.70
38936;DHT22;66589;47.458;9.644;2023-07-08T17:56:42;29.80;50.10
38936;DHT22;66589;47.458;9.644;2023-07-08T17:59:16;29.80;50.50
38936;DHT22;66589;47.458;9.644;2023-07-08T18:01:44;29.80;51.40
38936;DHT22;66589;47.458;9.644;2023-07-08T18:04:11;29.80;50.70
38936;DHT22;66589;47.458;9.644;2023-07-08T18:06:36;29.70;51.30
38936;DHT22;66589;47.458;9.644;2023-07-08T18:09:02;29.70;51.00
38936;DHT22;66589;47.458;9.644;2023-07-08T18:11:28;29.60;51.00
38936;DHT22;66589;47.458;9.644;2023-07-08T18:13:54;29.60;51.20
38936;DHT22;66589;47.458;9.644;2023-07-08T18:16:22;29.50;50.80
38936;DHT22;66589;47.458;9.644;2023-07-08T18:18:52;29.50;50.30
38936;DHT22;66589;47.458;9.644;2023-07-08T18:21:23;29.50;51.40
38936;DHT22;66589;47.458;9.644;2023-07-08T18:23:51;29.40;52.20
38936;DHT22;66589;47.458;9.644;2023-07-08T18:26:25;29.40;51.40
38936;DHT22;66589;47.458;9.644;2023-07-08T18:28:52;29.40;51.70
38936;DHT22;66589;47.458;9.644;2023-07-08T18:31:23;29.30;51.70
38936;DHT22;66589;47.458;9.644;2023-07-08T18:33:51;29.30;51.90
38936;DHT22;66589;47.458;9.644;2023-07-08T18:36:17;29.30;50.50
38936;DHT22;66589;47.458;9.644;2023-07-08T18:38:43;29.20;50.40
38936;DHT22;66589;47.458;9.644;2023-07-08T18:41:30;29.20;49.70
38936;DHT22;66589;47.458;9.644;2023-07-08T18:43:59;29.20;51.40
38936;DHT22;66589;47.458;9.644;2023-07-08T18:46:25;29.20;51.10
38936;DHT22;66589;47.458;9.644;2023-07-08T18:48:51;29.20;52.50
38936;DHT22;66589;47.458;9.644;2023-07-08T18:51:22;29.10;52.30
38936;DHT22;66589;47.458;9.644;2023-07-08T18:53:48;29.10;52.60
38936;DHT22;66589;47.458;9.644;2023-07-08T18:56:16;29.00;52.30
38936;DHT22;66589;47.458;9.644;2023-07-08T18:58:45;29.00;51.40
38936;DHT22;66589;47.458;9.644;2023-07-08T19:01:16;28.90;51.70
38936;DHT22;66589;47.458;9.644;2023-07-08T19:03:43;28.80;51.30
38936;DHT22;66589;47.458;9.644;2023-07-08T19:06:11;28.70;50.90
38936;DHT22;66589;47.458;9.644;2023-07-08T19:08:37;28.60;51.60
38936;DHT22;66589;47.458;9.644;2023-07-08T19:11:04;28.50;52.00
38936;DHT22;66589;47.458;9.644;2023-07-08T19:13:30;28.40;52.90
38936;DHT22;66589;47.458;9.644;2023-07-08T19:15:56;28.40;54.00
38936;DHT22;66589;47.458;9.644;2023-07-08T19:18:22;28.20;54.20
38936;DHT22;66589;47.458;9.644;2023-07-08T19:20:48;28.20;53.80
38936;DHT22;66589;47.458;9.644;2023-07-08T19:23:19;28.10;53.30
38936;DHT22;66589;47.458;9.644;2023-07-08T19:25:46;28.00;54.40
38936;DHT22;66589;47.458;9.644;2023-07-08T19:28:12;28.00;55.00
38936;DHT22;66589;47.458;9.644;2023-07-08T19:30:39;27.90;54.70
38936;DHT22;66589;47.458;9.644;2023-07-08T19:33:06;27.80;55.30
38936;DHT22;66589;47.458;9.644;2023-07-08T19:35:41;27.70;56.00
38936;DHT22;66589;47.458;9.644;2023-07-08T19:38:11;27.70;55.70
38936;DHT22;66589;47.458;9.644;2023-07-08T19:40:37;27.60;56.30
38936;DHT22;66589;47.458;9.644;2023-07-08T19:43:08;27.60;56.10
38936;DHT22;66589;47.458;9.644;2023-07-08T19:45:34;27.50;56.50
38936;DHT22;66589;47.458;9.644;2023-07-08T19:47:59;27.40;57.10
38936;DHT22;66589;47.458;9.644;2023-07-08T19:50:27;27.40;57.60
38936;DHT22;66589;47.458;9.644;2023-07-08T19:52:53;27.30;58.00
38936;DHT22;66589;47.458;9.644;2023-07-08T19:55:19;27.10;58.10
38936;DHT22;66589;47.458;9.644;2023-07-08T19:57:50;27.10;58.80
38936;DHT22;66589;47.458;9.644;2023-07-08T20:02:49;26.90;58.80